Time;durP1;ratioP1;P1;durP2;ratioP2;P2;SDS_P1;SDS_P2;PMS_P1;PMS_P2;Temp;Humidity;BMP_temperature;BMP_pressure;BME280_temperature;BME280_humidity;BME280_pressure;Samples;Min_cycle;Max_cycle;Signal;HPM_P1;HPM_P2
2023/08/23 00:01:07;;;;;;;9.98;7.43;;;;;;;17.23;100.00;102101.47;5050202;28;20379;-64
2023/08/23 00:03:32;;;;;;;12.88;6.97;;;;;;;17.21;100.00;102092.66;5048969;28;20021;-64
2023/08/23 00:05:57;;;;;;;11.30;7.15;;;;;;;17.16;100.00;102098.19;5049414;28;20097;-64
2023/08/23 00:08:23;;;;;;;9.75;6.88;;;;;;;17.12;100.00;102098.38;5049533;28;20032;-63
2023/08/23 00:10:55;;;;;;;17.80;7.40;;;;;;;17.08;100.00;102089.66;5051186;28;20017;-63
2023/08/23 00:13:23;;;;;;;12.20;7.63;;;;;;;17.04;100.00;102080.88;5049582;28;20029;-64
2023/08/23 00:15:48;;;;;;;8.65;7.32;;;;;;;17.02;100.00;102082.75;5049356;28;20017;-64
2023/08/23 00:18:14;;;;;;;13.90;8.02;;;;;;;17.02;100.00;102084.56;5048077;28;20543;-63
2023/08/23 00:20:39;;;;;;;10.57;7.75;;;;;;;17.01;100.00;102081.00;5050649;28;20380;-65
2023/08/23 00:23:04;;;;;;;12.15;8.07;;;;;;;17.00;100.00;102075.75;5048088;28;20032;-64
2023/08/23 00:25:30;;;;;;;10.20;7.47;;;;;;;16.99;100.00;102076.69;5048649;28;20100;-64
2023/08/23 00:27:55;;;;;;;12.27;7.82;;;;;;;17.00;100.00;102073.09;5050625;28;20052;-64
2023/08/23 00:30:20;;;;;;;11.20;7.78;;;;;;;17.00;100.00;102075.75;5048569;28;20414;-64
2023/08/23 00:32:46;;;;;;;9.00;7.72;;;;;;;17.00;100.00;102073.09;5048473;28;20049;-64
2023/08/23 00:35:11;;;;;;;12.93;7.57;;;;;;;17.00;100.00;102073.09;5049507;28;20025;-64
2023/08/23 00:37:37;;;;;;;12.38;8.18;;;;;;;16.99;100.00;102068.69;5049464;28;20577;-64
2023/08/23 00:40:02;;;;;;;15.00;8.65;;;;;;;16.95;100.00;102069.75;5047910;28;20017;-64
2023/08/23 00:42:28;;;;;;;11.45;8.25;;;;;;;16.91;100.00;102061.91;5047786;28;20467;-64
2023/08/23 00:44:53;;;;;;;13.38;8.90;;;;;;;16.91;100.00;102061.03;5049984;28;20028;-63
2023/08/23 00:47:18;;;;;;;12.73;8.32;;;;;;;16.91;100.00;102059.25;5049149;28;20033;-64
2023/08/23 00:49:46;;;;;;;13.75;8.38;;;;;;;16.91;100.00;102059.25;5047997;28;20013;-64
2023/08/23 00:52:11;;;;;;;10.15;8.02;;;;;;;16.95;100.00;102059.13;5048991;28;20067;-64
2023/08/23 00:54:36;;;;;;;10.07;7.35;;;;;;;16.91;100.00;102069.00;5048295;28;20488;-64
2023/08/23 00:57:02;;;;;;;17.90;8.40;;;;;;;16.96;100.00;102066.16;5048073;28;20090;-64
2023/08/23 00:59:30;;;;;;;16.77;7.50;;;;;;;16.93;100.00;102064.50;5047225;28;20486;-64
2023/08/23 01:01:55;;;;;;;13.38;7.90;;;;;;;16.92;100.00;102055.63;5049513;28;20025;-63
2023/08/23 01:04:20;;;;;;;11.02;7.25;;;;;;;16.93;100.00;102057.41;5049682;28;20032;-64
2023/08/23 01:07:11;;;;;;;11.30;7.80;;;;;;;16.96;100.00;102055.50;5048181;28;20028;-63
2023/08/23 01:09:52;;;;;;;14.07;7.90;;;;;;;16.98;100.00;102053.66;5047611;28;20025;-63
2023/08/23 01:12:34;;;;;;;12.45;7.93;;;;;;;16.97;100.00;102062.56;5045847;28;20082;-64
2023/08/23 01:15:07;;;;;;;11.82;7.60;;;;;;;16.96;100.00;102055.50;5047769;28;20503;-64
2023/08/23 01:17:35;;;;;;;13.70;8.02;;;;;;;16.95;100.00;102064.44;5048197;28;20033;-64
2023/08/23 01:20:01;;;;;;;14.15;7.72;;;;;;;16.91;100.00;102063.69;5048196;28;20669;-64
2023/08/23 01:22:29;;;;;;;10.55;7.38;;;;;;;16.89;100.00;102061.09;5048950;28;20028;-64
2023/08/23 01:24:55;;;;;;;11.35;7.90;;;;;;;16.87;100.00;102067.41;5047752;28;20029;-64
2023/08/23 01:27:20;;;;;;;13.23;8.27;;;;;;;16.84;100.00;102062.22;5048189;28;20031;-64
2023/08/23 01:29:47;;;;;;;12.75;7.60;;;;;;;16.84;100.00;102067.53;5048617;28;20084;-64
2023/08/23 01:32:25;;;;;;;12.23;7.88;;;;;;;16.82;100.00;102064.94;5047666;28;20073;-64
2023/08/23 01:34:56;;;;;;;13.35;7.75;;;;;;;16.78;100.00;102058.00;5049581;28;20553;-63
2023/08/23 01:37:23;;;;;;;12.88;8.20;;;;;;;16.78;100.00;102068.66;5048737;28;20017;-64
2023/08/23 01:39:51;;;;;;;12.10;8.18;;;;;;;16.74;100.00;102062.56;5047221;28;20048;-64
2023/08/23 01:42:16;;;;;;;11.85;8.25;;;;;;;16.73;100.00;102058.19;5045774;28;20037;-64
2023/08/23 01:44:43;;;;;;;12.73;7.85;;;;;;;16.74;100.00;102056.41;5046320;28;20036;-64
2023/08/23 01:47:08;;;;;;;12.82;8.55;;;;;;;16.73;100.00;102054.66;5047441;28;20025;-64
2023/08/23 01:49:34;;;;;;;13.52;8.70;;;;;;;16.72;100.00;102047.59;5047526;28;20025;-65
2023/08/23 01:51:59;;;;;;;13.50;8.35;;;;;;;16.71;100.00;102044.09;5047832;28;20466;-64
2023/08/23 01:54:24;;;;;;;13.35;9.05;;;;;;;16.74;100.00;102045.75;5048420;28;20052;-64
2023/08/23 01:56:50;;;;;;;13.93;8.60;;;;;;;16.78;100.00;102045.59;5047183;28;20029;-64
2023/08/23 01:59:15;;;;;;;13.82;8.85;;;;;;;16.77;100.00;102048.31;5053576;28;20407;-64
2023/08/23 02:01:40;;;;;;;15.88;9.05;;;;;;;16.77;100.00;102048.31;5049786;28;20060;-64
2023/08/23 02:04:06;;;;;;;14.55;8.98;;;;;;;16.79;100.00;102052.63;5047304;28;20025;-64
2023/08/23 02:06:31;;;;;;;14.63;9.13;;;;;;;16.80;100.00;102050.84;5048186;28;20036;-64
2023/08/23 02:08:56;;;;;;;15.48;9.95;;;;;;;16.80;100.00;102042.84;5047022;28;20538;-64
2023/08/23 02:11:21;;;;;;;15.95;9.20;;;;;;;16.81;100.00;102047.25;5049180;28;20447;-64
2023/08/23 02:13:47;;;;;;;15.65;10.13;;;;;;;16.81;100.00;102039.25;5046994;28;20106;-64
2023/08/23 02:16:12;;;;;;;19.30;9.93;;;;;;;16.80;100.00;102034.88;5047327;28;20058;-66
2023/08/23 02:18:37;;;;;;;14.93;9.98;;;;;;;16.85;100.00;102038.19;5047628;28;20032;-64
2023/08/23 02:21:03;;;;;;;18.63;10.38;;;;;;;16.84;100.00;102049.78;5044724;28;20059;-64
2023/08/23 02:23:28;;;;;;;20.65;10.45;;;;;;;16.87;100.00;102047.00;5047334;28;20017;-63
2023/08/23 02:25:53;;;;;;;16.80;10.27;;;;;;;16.89;100.00;102044.28;5046819;28;20025;-64
2023/08/23 02:28:19;;;;;;;14.50;9.65;;;;;;;16.91;100.00;102043.25;5046839;28;20464;-64
2023/08/23 02:30:44;;;;;;;13.98;9.00;;;;;;;16.94;100.00;102039.59;5046921;28;20025;-64
2023/08/23 02:33:10;;;;;;;17.00;10.20;;;;;;;16.96;100.00;102039.53;5045900;28;20037;-62
2023/08/23 02:35:44;;;;;;;18.95;10.98;;;;;;;16.93;100.00;102032.56;5047935;28;20021;-63
2023/08/23 02:38:10;;;;;;;17.02;10.60;;;;;;;16.95;100.00;102035.16;5048024;28;20021;-63
2023/08/23 02:40:39;;;;;;;14.80;10.55;;;;;;;16.89;100.00;102031.81;5046160;28;20028;-64
2023/08/23 02:43:05;;;;;;;17.23;11.25;;;;;;;16.88;100.00;102019.44;5046408;28;20116;-63
2023/08/23 02:45:30;;;;;;;17.75;10.23;;;;;;;16.87;100.00;102015.06;5046870;28;20100;-65
2023/08/23 02:47:55;;;;;;;14.48;10.60;;;;;;;16.86;100.00;102007.13;5048436;28;20124;-64
2023/08/23 02:50:20;;;;;;;16.38;10.45;;;;;;;16.87;100.00;102015.06;5047646;28;20039;-65
2023/08/23 02:52:46;;;;;;;16.23;9.63;;;;;;;16.88;100.00;102011.44;5047876;28;20052;-64
2023/08/23 02:55:11;;;;;;;17.80;10.50;;;;;;;16.90;100.00;102014.94;5068828;28;20510;-62
2023/08/23 02:57:36;;;;;;;17.88;10.85;;;;;;;16.91;100.00;102016.66;5071043;28;20031;-63
2023/08/23 03:00:02;;;;;;;18.75;10.82;;;;;;;16.95;100.00;102012.06;5063947;28;20039;-64
2023/08/23 03:02:27;;;;;;;18.63;11.48;;;;;;;17.00;100.00;102020.72;5072211;28;20023;-64
2023/08/23 03:04:53;;;;;;;16.20;10.95;;;;;;;17.03;100.00;102019.72;5065229;28;20044;-64
2023/08/23 03:07:18;;;;;;;16.48;10.98;;;;;;;17.10;100.00;102017.69;5052165;28;20131;-63
2023/08/23 03:09:43;;;;;;;20.05;11.65;;;;;;;17.13;100.00;102010.44;5050776;28;20056;-64
2023/08/23 03:12:09;;;;;;;20.75;11.90;;;;;;;17.11;100.00;102012.31;5051639;28;20119;-65
2023/08/23 03:14:34;;;;;;;20.40;11.88;;;;;;;17.14;100.00;102012.19;5051248;28;20063;-65
2023/08/23 03:16:59;;;;;;;19.33;11.48;;;;;;;17.11;100.00;102017.63;5050478;28;20029;-65
2023/08/23 03:19:25;;;;;;;20.73;11.20;;;;;;;17.11;100.00;102011.44;5050148;28;20116;-64
2023/08/23 03:21:50;;;;;;;15.88;11.50;;;;;;;17.10;100.00;102005.22;5051478;28;20032;-64
2023/08/23 03:24:15;;;;;;;18.92;12.30;;;;;;;17.08;100.00;102009.78;5050796;28;20025;-63
2023/08/23 03:26:41;;;;;;;22.70;14.00;;;;;;;17.02;100.00;102024.19;5050536;28;20048;-65
2023/08/23 03:29:07;;;;;;;27.42;13.82;;;;;;;17.01;100.00;102017.09;5050820;28;20031;-65
2023/08/23 03:31:32;;;;;;;26.38;14.85;;;;;;;16.99;100.00;102018.13;5053014;28;20049;-63
2023/08/23 03:33:58;;;;;;;26.17;14.70;;;;;;;16.97;100.00;102019.97;5051143;28;20125;-64
2023/08/23 03:36:23;;;;;;;25.80;15.00;;;;;;;16.91;100.00;102021.97;5051132;28;20473;-64
2023/08/23 03:38:49;;;;;;;30.13;15.13;;;;;;;16.92;100.00;102022.84;5051803;28;20223;-64
2023/08/23 03:41:14;;;;;;;28.15;15.00;;;;;;;16.92;100.00;102014.84;5049860;28;20033;-64
2023/08/23 03:43:40;;;;;;;33.03;17.45;;;;;;;16.90;100.00;102014.03;5050883;28;20021;-64
2023/08/23 03:46:05;;;;;;;31.48;15.70;;;;;;;16.89;100.00;102013.16;5050387;28;20171;-64
2023/08/23 03:48:31;;;;;;;30.25;16.33;;;;;;;16.87;100.00;102017.72;5048543;28;20661;-64
2023/08/23 03:50:59;;;;;;;31.63;16.25;;;;;;;16.90;100.00;102019.38;5052366;28;20032;-63
2023/08/23 03:53:26;;;;;;;36.40;18.27;;;;;;;16.88;100.00;102022.09;5049966;28;20050;-64
2023/08/23 03:55:54;;;;;;;35.90;17.75;;;;;;;16.84;100.00;102015.19;5049497;28;20098;-64
2023/08/23 03:58:20;;;;;;;34.25;17.60;;;;;;;16.83;100.00;102024.09;5051409;28;20072;-64
2023/08/23 04:00:52;;;;;;;36.70;18.80;;;;;;;16.82;100.00;102022.34;5049255;28;20045;-65
2023/08/23 04:03:18;;;;;;;35.88;18.50;;;;;;;16.78;100.00;102018.97;5052384;28;20099;-64
2023/08/23 04:05:43;;;;;;;38.33;19.02;;;;;;;16.82;100.00;102013.53;5049776;28;20116;-64
2023/08/23 04:08:10;;;;;;;45.17;19.05;;;;;;;16.80;100.00;102018.91;5050063;28;20419;-64
2023/08/23 04:10:36;;;;;;;41.95;20.52;;;;;;;16.85;100.00;102016.03;5050352;28;20053;-64
2023/08/23 04:13:01;;;;;;;37.17;18.73;;;;;;;16.84;100.00;102020.50;5047982;28;20071;-64
2023/08/23 04:15:27;;;;;;;40.65;20.02;;;;;;;16.84;100.00;102020.50;5049887;28;20009;-65
2023/08/23 04:17:52;;;;;;;43.30;19.00;;;;;;;16.86;100.00;102015.13;5049612;28;20021;-63
2023/08/23 04:20:17;;;;;;;44.65;20.73;;;;;;;16.87;100.00;102023.03;5048408;28;20081;-64
2023/08/23 04:22:43;;;;;;;43.65;20.20;;;;;;;16.87;100.00;102015.06;5050842;28;20106;-64
2023/08/23 04:25:09;;;;;;;43.13;21.60;;;;;;;16.87;100.00;102007.06;5049093;28;20507;-64
2023/08/23 04:27:34;;;;;;;43.40;20.27;;;;;;;16.86;100.00;102009.78;5049315;28;20063;-64
2023/08/23 04:29:59;;;;;;;45.63;20.33;;;;;;;16.85;100.00;102002.72;5049736;28;20505;-62
2023/08/23 04:32:25;;;;;;;47.03;21.33;;;;;;;16.84;100.00;102007.19;5047659;28;20086;-64
2023/08/23 04:34:50;;;;;;;47.90;20.17;;;;;;;16.88;100.00;102011.44;5051076;28;20036;-64
2023/08/23 04:37:16;;;;;;;44.10;20.67;;;;;;;16.88;100.00;102008.78;5049119;28;20698;-64
2023/08/23 04:39:42;;;;;;;38.50;19.73;;;;;;;16.88;100.00;102011.44;5050128;28;20245;-64
2023/08/23 04:42:07;;;;;;;41.03;19.35;;;;;;;16.88;100.00;102010.56;5048714;28;20460;-64
2023/08/23 04:44:33;;;;;;;37.70;18.05;;;;;;;16.88;100.00;102006.13;5048812;28;20120;-64
2023/08/23 04:46:58;;;;;;;37.13;18.48;;;;;;;16.86;100.00;102012.44;5050605;28;20116;-64
2023/08/23 04:49:24;;;;;;;39.22;19.45;;;;;;;16.83;100.00;102008.13;5047314;28;20056;-65
2023/08/23 04:51:49;;;;;;;43.33;19.30;;;;;;;16.82;100.00;102017.03;5050331;28;20025;-63
2023/08/23 04:54:14;;;;;;;38.35;18.23;;;;;;;16.79;100.00;102007.38;5049552;28;20407;-64
2023/08/23 04:56:40;;;;;;;33.65;17.42;;;;;;;16.88;100.00;102010.56;5047695;28;20056;-63
2023/08/23 04:59:05;;;;;;;41.95;19.50;;;;;;;16.86;100.00;102007.13;5050713;28;20024;-64
2023/08/23 05:01:30;;;;;;;40.63;19.55;;;;;;;16.88;100.00;102000.81;5050037;28;20056;-64
2023/08/23 05:03:56;;;;;;;45.88;20.65;;;;;;;16.88;100.00;102003.47;5049428;28;20667;-64
2023/08/23 05:06:21;;;;;;;48.15;21.70;;;;;;;16.93;100.00;102005.94;5048579;28;20025;-64
2023/08/23 05:08:47;;;;;;;44.90;21.23;;;;;;;16.99;100.00;102003.00;5049914;28;20033;-63
2023/08/23 05:11:13;;;;;;;52.28;22.15;;;;;;;17.01;100.00;102000.28;5048917;28;20064;-64
2023/08/23 05:13:38;;;;;;;55.65;23.23;;;;;;;17.02;100.00;102010.88;5047110;28;20082;-64
2023/08/23 05:16:03;;;;;;;50.80;21.30;;;;;;;17.08;100.00;102008.91;5048937;28;20415;-66
2023/08/23 05:18:29;;;;;;;49.90;24.55;;;;;;;17.15;100.00;102003.25;5048513;28;20033;-64
2023/08/23 05:20:55;;;;;;;55.35;24.63;;;;;;;17.20;100.00;102000.38;5049228;28;20434;-65
2023/08/23 05:23:21;;;;;;;56.42;24.23;;;;;;;17.22;100.00;102008.31;5048831;28;20056;-64
2023/08/23 05:25:47;;;;;;;56.25;24.42;;;;;;;17.28;100.00;102002.72;5047696;28;20073;-64
2023/08/23 05:28:12;;;;;;;50.47;23.20;;;;;;;17.42;100.00;102005.63;5048542;28;20450;-64
2023/08/23 05:30:39;;;;;;;53.53;25.23;;;;;;;17.51;100.00;102004.34;5048356;28;20027;-64
2023/08/23 05:33:04;;;;;;;60.20;27.40;;;;;;;17.54;100.00;102000.69;5045966;28;20052;-64
2023/08/23 05:35:30;;;;;;;57.65;25.20;;;;;;;17.58;100.00;102004.09;5050262;28;20021;-63
2023/08/23 05:37:55;;;;;;;53.03;24.52;;;;;;;17.65;100.00;102001.06;5046515;28;20071;-64
2023/08/23 05:40:20;;;;;;;55.00;24.50;;;;;;;17.70;100.00;102003.50;5046526;28;20056;-65
2023/08/23 05:42:46;;;;;;;51.70;23.90;;;;;;;17.78;100.00;102005.81;5046358;28;20079;-64
2023/08/23 05:45:11;;;;;;;49.70;24.95;;;;;;;17.91;100.00;102001.66;5046328;28;20074;-64
2023/08/23 05:47:36;;;;;;;51.60;24.13;;;;;;;17.91;100.00;101996.31;5045422;28;20434;-63
2023/08/23 05:50:02;;;;;;;55.88;24.10;;;;;;;18.01;100.00;101998.56;5056234;28;20491;-63
2023/08/23 05:52:27;;;;;;;54.42;23.45;;;;;;;18.09;100.00;101999.06;5045763;28;20033;-64
2023/08/23 05:54:52;;;;;;;47.08;23.23;;;;;;;18.22;100.00;102014.53;5045110;28;20029;-64
2023/08/23 05:57:18;;;;;;;49.47;22.15;;;;;;;18.34;100.00;102013.94;5047904;28;20029;-63
2023/08/23 05:59:43;;;;;;;47.03;22.00;;;;;;;18.41;100.00;102012.69;5046577;28;20214;-64
2023/08/23 06:02:08;;;;;;;51.63;25.60;;;;;;;18.43;100.00;102017.97;5045991;28;20029;-64
2023/08/23 06:04:34;;;;;;;46.15;22.92;;;;;;;18.55;100.00;102022.69;5047671;28;20476;-63
2023/08/23 06:07:00;;;;;;;55.78;23.77;;;;;;;18.61;100.00;102023.34;5047065;28;20856;-63
2023/08/23 06:09:25;;;;;;;48.28;22.95;;;;;;;18.68;100.00;102017.63;5045085;28;20029;-63
2023/08/23 06:11:50;;;;;;;42.65;23.17;;;;;;;18.71;100.00;102015.72;5049013;28;20047;-64
2023/08/23 06:14:21;;;;;;;53.45;23.35;;;;;;;18.73;100.00;102022.72;5057697;28;20462;-64
2023/08/23 06:16:46;;;;;;;40.22;21.08;;;;;;;18.86;100.00;102025.66;5066511;28;20375;-63
2023/08/23 06:19:12;;;;;;;52.88;24.35;;;;;;;18.84;100.00;102038.19;5065958;28;20035;-64
2023/08/23 06:21:39;;;;;;;45.25;22.70;;;;;;;18.91;100.00;102038.78;5066338;28;20087;-64
2023/08/23 06:24:04;;;;;;;46.22;21.73;;;;;;;18.98;100.00;102029.50;5066828;28;20036;-63
2023/08/23 06:26:30;;;;;;;41.30;22.52;;;;;;;19.05;100.00;102036.25;5065090;28;20028;-62
2023/08/23 06:28:55;;;;;;;37.63;22.13;;;;;;;19.11;100.00;102040.44;5066262;28;20074;-63
2023/08/23 06:31:21;;;;;;;47.47;21.83;;;;;;;19.21;100.00;102034.63;5056281;28;20041;-62
2023/08/23 06:33:46;;;;;;;41.28;22.08;;;;;;;19.32;100.00;102040.28;5062476;28;20387;-62
2023/08/23 06:36:11;;;;;;;42.88;22.55;;;;;;;19.36;100.00;102036.53;5066463;28;20491;-61
2023/08/23 06:38:37;;;;;;;40.85;22.17;;;;;;;19.49;100.00;102043.88;5066183;28;20119;-63
2023/08/23 06:41:02;;;;;;;41.42;21.73;;;;;;;19.60;100.00;102037.97;5065743;28;20024;-64
2023/08/23 06:43:27;;;;;;;37.90;21.42;;;;;;;19.78;100.00;102034.28;5051876;28;20040;-63
2023/08/23 06:45:53;;;;;;;41.42;21.67;;;;;;;20.08;100.00;102043.44;5067248;28;20013;-64
2023/08/23 06:48:19;;;;;;;42.13;21.55;;;;;;;20.28;100.00;102044.13;5053739;28;20036;-64
2023/08/23 06:50:44;;;;;;;38.03;20.38;;;;;;;20.43;100.00;102045.06;5066807;28;20036;-63
2023/08/23 06:53:10;;;;;;;40.28;20.30;;;;;;;20.66;100.00;102051.78;5067436;28;20041;-65
2023/08/23 06:55:40;;;;;;;34.05;18.88;;;;;;;20.74;100.00;102054.00;5066443;28;20020;-63
2023/08/23 06:58:06;;;;;;;38.95;22.95;;;;;;;20.76;100.00;102056.59;5066472;28;20063;-63
2023/08/23 07:00:31;;;;;;;37.75;22.02;;;;;;;20.92;100.00;102057.47;5067008;28;20048;-63
2023/08/23 07:02:56;;;;;;;41.45;22.98;;;;;;;21.02;100.00;102054.25;5066180;28;20169;-61
2023/08/23 07:05:22;;;;;;;49.47;27.92;;;;;;;21.15;100.00;102055.25;5066274;28;20028;-61
2023/08/23 07:07:47;;;;;;;48.55;28.08;;;;;;;21.18;100.00;102063.09;5067235;28;20029;-62
2023/08/23 07:10:13;;;;;;;47.90;29.30;;;;;;;21.23;100.00;102061.94;5067327;28;20059;-62
2023/08/23 07:12:38;;;;;;;54.22;34.22;;;;;;;21.15;100.00;102063.28;5054403;28;20132;-64
2023/08/23 07:15:04;;;;;;;54.30;33.50;;;;;;;21.28;100.00;102057.19;5047562;28;20037;-67
2023/08/23 07:17:29;;;;;;;56.22;32.88;;;;;;;21.37;100.00;102053.94;5044989;28;20040;-66
2023/08/23 07:19:55;;;;;;;53.58;34.10;;;;;;;21.44;100.00;102063.34;5047583;28;20039;-60
2023/08/23 07:22:20;;;;;;;56.20;36.15;;;;;;;21.49;100.00;102057.69;5045590;28;20468;-64
2023/08/23 07:24:46;;;;;;;51.85;33.95;;;;;;;21.49;100.00;102067.56;5045775;28;20025;-66
2023/08/23 07:27:11;;;;;;;52.15;33.83;;;;;;;21.50;100.00;102070.16;5045669;28;20067;-66
2023/08/23 07:29:36;;;;;;;51.28;31.30;;;;;;;21.78;100.00;102064.91;5044506;28;20028;-65
2023/08/23 07:32:03;;;;;;;60.92;37.47;;;;;;;21.80;100.00;102076.44;5043950;28;20400;-68
2023/08/23 07:34:29;;;;;;;62.03;38.20;;;;;;;21.84;100.00;102083.31;5044880;28;20414;-64
2023/08/23 07:36:55;;;;;;;57.13;37.00;;;;;;;21.98;100.00;102078.91;5045425;28;20021;-67
2023/08/23 07:39:20;;;;;;;59.65;36.28;;;;;;;21.91;100.00;102079.28;5046971;28;20036;-67
2023/08/23 07:41:45;;;;;;;63.08;36.40;;;;;;;21.93;100.00;102085.44;5049819;28;20483;-65
2023/08/23 07:44:11;;;;;;;55.60;35.83;;;;;;;21.94;100.00;102087.16;5049597;28;20052;-63
2023/08/23 07:46:36;;;;;;;53.90;34.10;;;;;;;21.95;100.00;102088.00;5047729;28;20491;-64
2023/08/23 07:49:01;;;;;;;51.50;33.78;;;;;;;21.91;100.00;102083.81;5051656;28;20087;-64
2023/08/23 07:51:27;;;;;;;54.92;33.78;;;;;;;22.02;100.00;102085.78;5049346;28;20025;-63
2023/08/23 07:53:52;;;;;;;53.92;34.13;;;;;;;22.16;100.00;102085.81;5051622;28;20017;-63
2023/08/23 07:56:18;;;;;;;48.00;31.15;;;;;;;22.24;100.00;102081.75;5049937;28;20021;-63
2023/08/23 07:58:43;;;;;;;44.03;29.63;;;;;;;22.28;100.00;102077.91;5049241;28;20029;-65
2023/08/23 08:01:08;;;;;;;47.40;29.60;;;;;;;22.32;100.00;102082.13;5051560;28;20024;-63
2023/08/23 08:03:34;;;;;;;42.92;28.83;;;;;;;22.45;100.00;102085.72;5049080;28;20037;-64
2023/08/23 08:05:59;;;;;;;47.97;29.00;;;;;;;22.52;100.00;102093.38;5050508;28;20131;-62
2023/08/23 08:08:25;;;;;;;39.97;26.85;;;;;;;22.49;100.00;102096.28;5050288;28;20025;-63
2023/08/23 08:10:50;;;;;;;43.08;27.83;;;;;;;22.52;100.00;102104.13;5049074;28;20021;-64
2023/08/23 08:13:16;;;;;;;46.75;29.80;;;;;;;22.47;100.00;102105.31;5050310;28;20491;-64
2023/08/23 08:15:42;;;;;;;51.45;30.25;;;;;;;22.32;100.00;102101.78;5049584;28;20043;-64
2023/08/23 08:18:07;;;;;;;47.92;31.17;;;;;;;22.28;100.00;102111.00;5048486;28;20128;-63
2023/08/23 08:20:32;;;;;;;49.63;31.75;;;;;;;22.20;100.00;102113.28;5056173;28;20111;-65
2023/08/23 08:22:58;;;;;;;48.72;30.25;;;;;;;22.08;100.00;102109.56;5065692;28;20028;-63
2023/08/23 08:25:24;;;;;;;45.30;30.45;;;;;;;21.89;100.00;102105.38;5057108;28;20434;-64
2023/08/23 08:27:50;;;;;;;46.15;29.02;;;;;;;21.85;100.00;102109.16;5048278;28;20036;-63
2023/08/23 08:30:16;;;;;;;46.53;29.02;;;;;;;21.83;100.00;102103.91;5049366;28;20018;-66
2023/08/23 08:32:41;;;;;;;40.47;28.00;;;;;;;21.93;100.00;102101.53;5046595;28;20126;-65
2023/08/23 08:35:07;;;;;;;46.17;29.10;;;;;;;22.01;100.00;102092.13;5050243;28;20071;-62
2023/08/23 08:37:32;;;;;;;43.38;27.83;;;;;;;21.97;100.00;102083.41;5047925;28;20434;-64
2023/08/23 08:39:58;;;;;;;54.88;31.15;;;;;;;21.97;100.00;102083.41;5047715;28;20425;-64
2023/08/23 08:42:23;;;;;;;45.20;29.00;;;;;;;22.05;100.00;102088.28;5048023;28;20382;-63
2023/08/23 08:44:48;;;;;;;41.97;27.10;;;;;;;22.14;100.00;102095.75;5046348;28;20028;-64
2023/08/23 08:47:14;;;;;;;45.33;28.17;;;;;;;22.13;100.00;102095.84;5048008;28;20387;-65
2023/08/23 08:49:39;;;;;;;43.20;28.73;;;;;;;22.16;100.00;102101.91;5047670;28;20031;-64
2023/08/23 08:52:05;;;;;;;41.20;27.13;;;;;;;22.16;100.00;102096.53;5047143;28;20042;-63
2023/08/23 08:54:33;;;;;;;43.25;29.52;;;;;;;22.22;100.00;102101.50;5048594;28;20044;-62
2023/08/23 08:56:59;;;;;;;50.07;29.87;;;;;;;22.25;100.00;102102.25;5046521;28;20017;-63
2023/08/23 08:59:25;;;;;;;49.13;30.90;;;;;;;22.26;100.00;102102.16;5048612;28;20059;-64
2023/08/23 09:01:50;;;;;;;39.47;25.77;;;;;;;22.34;100.00;102091.78;5048001;28;20100;-64
2023/08/23 09:04:16;;;;;;;47.60;30.70;;;;;;;22.29;100.00;102098.41;5044773;28;20017;-64
2023/08/23 09:06:42;;;;;;;46.53;29.90;;;;;;;22.20;100.00;102106.13;5047607;28;20039;-65
2023/08/23 09:09:07;;;;;;;44.40;29.55;;;;;;;22.35;100.00;102100.72;5046426;28;20020;-64
2023/08/23 09:11:36;;;;;;;49.05;30.92;;;;;;;22.53;100.00;102092.41;5049930;28;20431;-64
2023/08/23 09:14:15;;;;;;;47.20;30.33;;;;;;;22.57;100.00;102093.94;5047204;28;20651;-65
2023/08/23 09:16:41;;;;;;;48.90;31.30;;;;;;;22.44;100.00;102097.44;5049214;28;20020;-64
2023/08/23 09:19:12;;;;;;;47.67;29.88;;;;;;;22.60;100.00;102099.13;5047435;28;20032;-64
2023/08/23 09:21:50;;;;;;;48.92;31.00;;;;;;;22.52;100.00;102101.44;5045888;28;20117;-66
2023/08/23 09:24:17;;;;;;;49.80;31.50;;;;;;;22.76;100.00;102104.38;5049063;28;20566;-64
2023/08/23 09:26:45;;;;;;;42.42;27.85;;;;;;;22.81;100.00;102096.00;5045949;28;20020;-65
2023/08/23 09:29:10;;;;;;;47.45;29.92;;;;;;;22.85;100.00;102098.38;5048458;28;20029;-63
2023/08/23 09:31:35;;;;;;;41.58;26.30;;;;;;;23.02;100.00;102100.94;5045482;28;20072;-64
2023/08/23 09:34:01;;;;;;;43.55;27.73;;;;;;;23.05;100.00;102096.19;5046490;28;20025;-64
2023/08/23 09:36:39;;;;;;;40.00;26.52;;;;;;;23.17;100.00;102097.19;5047768;28;20043;-62
2023/08/23 09:39:07;;;;;;;43.63;29.17;;;;;;;23.31;100.00;102098.06;5045416;28;20028;-63
2023/08/23 09:41:34;;;;;;;42.17;27.73;;;;;;;23.31;100.00;102088.19;5045959;28;20032;-61
2023/08/23 09:44:00;;;;;;;45.75;29.38;;;;;;;23.45;100.00;102081.84;5046918;28;20376;-63
2023/08/23 09:46:26;;;;;;;39.80;27.40;;;;;;;23.50;100.00;102086.91;5044221;28;20055;-66
2023/08/23 09:48:52;;;;;;;37.58;25.38;;;;;;;23.52;100.00;102089.50;5045986;28;20081;-64
2023/08/23 09:51:18;;;;;;;46.65;26.58;;;;;;;23.59;100.00;102083.59;5047516;28;20608;-63
2023/08/23 09:53:46;;;;;;;34.70;25.00;;;;;;;23.69;100.00;102082.97;5046536;28;20167;-64
2023/08/23 09:56:11;;;;;;;39.30;27.20;;;;;;;23.94;100.00;102083.88;5047893;28;20147;-64
2023/08/23 09:58:37;;;;;;;40.28;25.40;;;;;;;24.04;100.00;102078.69;5046120;28;20171;-66
2023/08/23 10:01:03;;;;;;;33.97;22.27;;;;;;;24.10;100.00;102078.25;5067945;28;20763;-65
2023/08/23 10:03:29;;;;;;;32.20;21.40;;;;;;;24.13;100.00;102072.69;5048429;28;20025;-64
2023/08/23 10:05:54;;;;;;;30.48;19.30;;;;;;;24.33;100.00;102067.69;5045519;28;20208;-67
2023/08/23 10:08:20;;;;;;;29.38;18.55;;;;;;;24.43;100.00;102071.41;5049432;28;20052;-65
2023/08/23 10:10:49;;;;;;;27.33;18.73;;;;;;;24.50;100.00;102068.25;5052448;28;20032;-63
2023/08/23 10:13:15;;;;;;;28.27;17.70;;;;;;;24.52;100.00;102074.38;5047310;28;20119;-64
2023/08/23 10:15:40;;;;;;;21.75;15.77;;;;;;;24.65;100.00;102069.78;5046617;28;20630;-67
2023/08/23 10:18:12;;;;;;;21.60;13.85;;;;;;;24.76;100.00;102069.00;5047023;28;20493;-63
2023/08/23 10:20:37;;;;;;;20.98;12.15;;;;;;;24.89;100.00;102068.09;5044384;28;20330;-60
2023/08/23 10:23:16;;;;;;;19.25;10.35;;;;;;;24.88;97.14;102061.84;5047709;28;20025;-61
2023/08/23 10:25:43;;;;;;;12.48;6.47;;;;;;;25.07;91.35;102066.69;5044957;28;20032;-61
2023/08/23 10:28:08;;;;;;;13.90;6.85;;;;;;;25.11;88.76;102072.72;5046021;28;20017;-62
2023/08/23 10:30:34;;;;;;;9.07;5.40;;;;;;;25.26;89.12;102065.28;5046388;28;20039;-61
2023/08/23 10:33:10;;;;;;;10.05;5.82;;;;;;;25.56;88.42;102062.97;5045406;28;20037;-61
2023/08/23 10:35:36;;;;;;;14.95;7.25;;;;;;;25.77;86.47;102059.56;5046293;28;20369;-62
2023/08/23 10:38:04;;;;;;;11.30;6.20;;;;;;;26.03;84.05;102060.16;5046074;28;20025;-62
2023/08/23 10:40:31;;;;;;;10.20;6.47;;;;;;;26.22;83.22;102046.00;5044353;28;20029;-63
2023/08/23 10:42:56;;;;;;;10.18;6.65;;;;;;;26.32;81.24;102039.88;5045171;28;20032;-61
2023/08/23 10:45:22;;;;;;;8.98;5.80;;;;;;;26.29;80.48;102046.41;5043833;28;20025;-62
2023/08/23 10:47:49;;;;;;;16.02;6.75;;;;;;;26.33;81.77;102045.16;5046568;28;20377;-59
2023/08/23 10:50:15;;;;;;;9.80;6.13;;;;;;;26.24;83.97;102043.19;5044387;28;20150;-62
2023/08/23 10:52:41;;;;;;;8.68;3.45;;;;;;;26.38;79.41;102044.78;5044942;28;20085;-61
2023/08/23 10:55:07;;;;;;;9.00;4.00;;;;;;;26.33;80.03;102052.41;5046159;28;20021;-62
2023/08/23 10:57:32;;;;;;;10.13;3.95;;;;;;;26.58;80.13;102036.84;5043565;28;20029;-61
2023/08/23 10:59:57;;;;;;;7.68;2.90;;;;;;;26.69;78.55;102050.31;5047835;28;20022;-62